Time;durP1;ratioP1;P1;durP2;ratioP2;P2;SDS_P1;SDS_P2;PMS_P1;PMS_P2;Temp;Humidity;BMP_temperature;BMP_pressure;BME280_temperature;BME280_humidity;BME280_pressure;Samples;Min_cycle;Max_cycle;Signal;HPM_P1;HPM_P2
2021/05/30 06:00:09;;;;;;;3.67;2.75;;;;;;;16.12;61.67;100719.56;1729433;75;25777;31
2021/05/30 06:02:37;;;;;;;4.72;2.67;;;;;;;16.29;61.33;100720.73;1723042;82;26232;-57
2021/05/30 06:05:08;;;;;;;3.02;2.72;;;;;;;16.48;61.18;100725.70;1733127;81;25737;-56
2021/05/30 06:07:36;;;;;;;6.50;2.55;;;;;;;16.65;60.93;100721.95;1716389;82;27363;-56
2021/05/30 06:10:05;;;;;;;2.55;2.35;;;;;;;16.81;60.78;100724.82;1716418;82;25851;-57
2021/05/30 06:12:32;;;;;;;2.80;2.60;;;;;;;16.98;60.38;100723.84;1720137;82;30515;-57
2021/05/30 06:14:58;;;;;;;4.40;2.40;;;;;;;17.12;59.97;100724.85;1711748;82;26179;-57
2021/05/30 06:17:25;;;;;;;2.52;2.33;;;;;;;17.28;59.62;100729.04;1730368;82;25720;-56
2021/05/30 06:19:51;;;;;;;2.50;2.30;;;;;;;17.43;59.19;100735.17;1719353;82;28078;-56
2021/05/30 06:22:18;;;;;;;5.92;2.90;;;;;;;17.53;58.52;100727.86;1693571;83;25659;-56
2021/05/30 06:24:46;;;;;;;2.47;2.27;;;;;;;17.69;58.63;100727.12;1720781;82;25995;-57
2021/05/30 06:27:12;;;;;;;3.02;2.30;;;;;;;17.90;58.29;100734.62;1723967;81;25907;-56
2021/05/30 06:29:39;;;;;;;4.75;2.98;;;;;;;18.12;57.91;100737.96;1716857;81;25746;-56
2021/05/30 06:32:06;;;;;;;3.80;2.90;;;;;;;18.26;56.87;100742.44;1707197;82;27348;-55
2021/05/30 06:34:33;;;;;;;3.70;2.40;;;;;;;18.34;56.13;100739.89;1701715;83;26005;-57
2021/05/30 06:36:59;;;;;;;3.05;2.58;;;;;;;18.46;56.26;100739.26;1699776;83;25740;-56
2021/05/30 06:39:26;;;;;;;2.37;2.17;;;;;;;18.61;55.95;100734.12;1722502;81;27742;-54
2021/05/30 06:41:53;;;;;;;2.77;2.47;;;;;;;18.63;55.16;100743.61;1720249;82;25920;-57
2021/05/30 06:44:20;;;;;;;4.53;2.50;;;;;;;18.63;54.95;100740.08;1733925;82;27336;-54
2021/05/30 06:46:47;;;;;;;2.87;2.50;;;;;;;18.69;54.90;100737.28;1741693;80;25724;-56
2021/05/30 06:49:14;;;;;;;2.83;2.52;;;;;;;18.72;54.39;100737.16;1749506;80;25694;-56
2021/05/30 06:51:41;;;;;;;3.55;2.40;;;;;;;18.63;54.25;100731.28;1710114;83;25845;-56
2021/05/30 06:54:09;;;;;;;3.05;2.40;;;;;;;18.62;54.24;100734.36;1748288;81;25790;-56
2021/05/30 06:56:36;;;;;;;4.10;2.30;;;;;;;18.64;54.35;100740.28;1750738;80;27286;-56
2021/05/30 06:59:03;;;;;;;4.05;2.42;;;;;;;18.73;54.41;100735.99;1744002;81;26543;-55
2021/05/30 07:01:30;;;;;;;4.35;3.83;;;;;;;18.84;54.42;100730.25;1732045;82;25795;-55
2021/05/30 07:03:56;;;;;;;3.67;2.52;;;;;;;18.98;54.29;100733.31;1719274;81;26501;-55
2021/05/30 07:06:23;;;;;;;3.20;2.52;;;;;;;19.16;54.32;100732.95;1728585;81;25981;-55
2021/05/30 07:08:50;;;;;;;2.95;2.10;;;;;;;19.34;53.60;100727.30;1711806;81;27434;-55
2021/05/30 07:11:17;;;;;;;3.17;2.70;;;;;;;19.51;53.40;100721.99;1738149;81;25810;-56
2021/05/30 07:13:43;;;;;;;5.00;2.40;;;;;;;19.68;52.40;100721.34;1736798;81;25692;-56
2021/05/30 07:16:10;;;;;;;4.40;2.65;;;;;;;19.71;52.04;100729.64;1739255;81;27772;-57
2021/05/30 07:18:36;;;;;;;5.92;2.60;;;;;;;19.76;52.13;100731.34;1742453;81;25852;-56
2021/05/30 07:21:03;;;;;;;9.95;4.78;;;;;;;19.90;52.40;100721.22;1741815;81;27380;-56
2021/05/30 07:23:31;;;;;;;5.62;3.55;;;;;;;20.13;52.47;100735.02;1742963;81;25711;-56
2021/05/30 07:25:58;;;;;;;4.85;2.62;;;;;;;20.29;52.09;100730.79;1742442;80;25929;-56
2021/05/30 07:28:26;;;;;;;2.98;2.75;;;;;;;20.47;51.71;100734.66;1742292;81;25800;-56
2021/05/30 07:30:54;;;;;;;3.75;2.52;;;;;;;20.72;51.54;100737.05;1743540;81;25721;-56
2021/05/30 07:33:20;;;;;;;2.37;2.17;;;;;;;20.89;50.51;100736.57;1740898;81;27316;-56
2021/05/30 07:35:46;;;;;;;3.70;2.52;;;;;;;21.03;50.30;100737.96;1712096;81;25802;-52
2021/05/30 07:38:13;;;;;;;3.90;2.90;;;;;;;21.18;50.43;100741.70;1744844;81;25834;-52
2021/05/30 07:40:41;;;;;;;3.67;2.52;;;;;;;21.27;49.44;100738.90;1741006;81;25721;-51
2021/05/30 07:43:08;;;;;;;3.50;3.20;;;;;;;21.38;49.77;100741.01;1739444;82;25799;-52
2021/05/30 07:45:35;;;;;;;4.95;2.67;;;;;;;21.61;49.68;100725.83;1729829;82;27488;-49
2021/05/30 07:48:01;;;;;;;2.90;2.60;;;;;;;21.86;49.22;100736.34;1715521;82;25795;-48
2021/05/30 07:50:28;;;;;;;2.65;2.45;;;;;;;21.98;48.30;100746.53;1738125;81;25771;-50
2021/05/30 07:52:54;;;;;;;4.00;2.55;;;;;;;21.95;47.49;100739.61;1729681;81;25818;-48
2021/05/30 07:55:21;;;;;;;3.95;2.65;;;;;;;22.03;47.78;100744.01;1740120;81;25861;-50
2021/05/30 07:57:48;;;;;;;2.87;2.42;;;;;;;22.20;47.37;100749.51;1755938;81;27998;-49
2021/05/30 08:00:18;;;;;;;3.42;2.22;;;;;;;22.26;47.08;100741.72;1746186;80;25769;-52
2021/05/30 08:02:46;;;;;;;5.67;2.65;;;;;;;22.34;46.49;100737.90;1704152;82;25827;-52
2021/05/30 08:05:20;;;;;;;6.07;2.37;;;;;;;22.37;45.90;100738.49;1734662;81;25710;-49
2021/05/30 08:07:47;;;;;;;3.15;1.92;;;;;;;22.31;44.51;100736.68;1741603;80;25692;-48
2021/05/30 08:10:16;;;;;;;3.25;2.12;;;;;;;22.18;45.72;100739.45;1728476;82;27313;-49
2021/05/30 08:12:43;;;;;;;4.45;2.50;;;;;;;22.24;45.24;100744.84;1723754;81;25888;-49
2021/05/30 08:15:12;;;;;;;2.92;2.65;;;;;;;22.35;45.41;100744.98;1734538;80;25983;-52
2021/05/30 08:17:40;;;;;;;3.83;2.43;;;;;;;22.47;45.58;100747.45;1736616;81;26395;-48
2021/05/30 08:20:10;;;;;;;2.40;2.20;;;;;;;22.64;45.28;100744.66;1739392;80;25719;-49
2021/05/30 08:22:36;;;;;;;4.17;2.98;;;;;;;22.65;44.63;100747.62;1733022;81;27323;-47
2021/05/30 08:25:04;;;;;;;3.85;2.60;;;;;;;22.62;44.76;100745.63;1740674;81;25701;-51
2021/05/30 08:27:31;;;;;;;2.40;2.20;;;;;;;22.65;44.08;100742.71;1739413;81;25748;-49
2021/05/30 08:29:57;;;;;;;4.72;2.15;;;;;;;22.68;43.91;100745.49;1713973;81;25939;-52
2021/05/30 08:32:24;;;;;;;3.15;2.27;;;;;;;22.53;43.53;100742.41;1712258;81;25850;-54
2021/05/30 08:34:50;;;;;;;2.83;2.30;;;;;;;22.34;43.36;100733.77;1764330;80;27370;-54
2021/05/30 08:37:18;;;;;;;2.15;1.95;;;;;;;22.10;44.06;100743.30;1764789;80;25700;-52
2021/05/30 08:39:46;;;;;;;5.65;2.60;;;;;;;22.16;44.12;100738.45;1758172;81;26520;-53
2021/05/30 08:42:13;;;;;;;5.25;1.92;;;;;;;22.37;44.81;100739.88;1754682;81;26084;-55
2021/05/30 08:44:39;;;;;;;2.95;2.25;;;;;;;22.74;45.26;100736.28;1718350;80;25661;-54
2021/05/30 08:47:06;;;;;;;5.95;2.35;;;;;;;22.82;43.76;100733.00;1712085;82;27411;-54
2021/05/30 08:49:32;;;;;;;3.90;2.25;;;;;;;22.60;43.21;100735.57;1699245;82;25876;-54
2021/05/30 08:51:59;;;;;;;4.60;2.10;;;;;;;22.37;43.02;100735.17;1708682;82;25872;-54
2021/05/30 08:54:26;;;;;;;3.58;2.33;;;;;;;22.11;43.09;100736.04;1702831;83;26508;-54
2021/05/30 08:56:52;;;;;;;8.18;3.60;;;;;;;21.80;42.72;100739.43;1721608;82;25900;-52
2021/05/30 08:59:30;;;;;;;4.05;2.10;;;;;;;21.44;43.17;100743.07;1718311;82;27328;-54
2021/05/30 09:02:01;;;;;;;3.00;2.25;;;;;;;21.14;43.53;100740.27;1661144;84;25873;-57
2021/05/30 09:04:34;;;;;;;3.92;2.90;;;;;;;20.95;44.07;100739.01;1692612;83;25679;-56
2021/05/30 09:07:01;;;;;;;2.37;1.80;;;;;;;20.84;44.47;100741.00;1722297;82;25903;-57
2021/05/30 09:09:37;;;;;;;3.60;1.87;;;;;;;20.69;44.62;100742.72;1716185;82;25872;-56
2021/05/30 09:12:10;;;;;;;5.80;2.05;;;;;;;20.60;45.31;100732.53;1716644;82;27321;-58
2021/05/30 09:14:45;;;;;;;5.30;1.92;;;;;;;20.64;45.63;100739.49;1706399;82;25947;-59
2021/05/30 09:17:11;;;;;;;1.98;1.87;;;;;;;20.64;45.09;100736.16;1712051;82;25832;-57
2021/05/30 09:19:45;;;;;;;2.25;2.00;;;;;;;20.52;44.13;100736.31;1707998;83;25846;-57
2021/05/30 09:22:35;;;;;;;3.00;2.25;;;;;;;20.59;45.05;100734.27;1706884;83;25815;-58
2021/05/30 09:25:19;;;;;;;3.72;2.40;;;;;;;21.08;45.60;100737.05;1705470;83;28132;-58
2021/05/30 09:27:50;;;;;;;1.80;1.70;;;;;;;21.81;45.79;100732.77;1714903;81;26434;-59
2021/05/30 09:30:24;;;;;;;3.55;1.80;;;;;;;22.05;44.28;100736.75;1733572;81;25720;-56
2021/05/30 09:33:00;;;;;;;1.80;1.70;;;;;;;21.99;42.99;100740.44;1701644;82;25709;-57
2021/05/30 09:35:43;;;;;;;1.75;1.60;;;;;;;21.99;43.08;100743.97;1718747;81;25657;-58
2021/05/30 09:38:14;;;;;;;2.00;1.50;;;;;;;22.05;42.35;100743.64;1707505;82;27403;-58
2021/05/30 09:40:55;;;;;;;1.92;1.40;;;;;;;21.89;41.60;100744.64;1725177;80;27206;-57
2021/05/30 09:43:27;;;;;;;2.22;1.65;;;;;;;21.75;41.72;100743.89;1746935;80;26381;-57
2021/05/30 09:46:11;;;;;;;2.15;1.82;;;;;;;21.68;41.59;100748.53;1724289;81;25769;-57
2021/05/30 09:48:52;;;;;;;1.87;1.77;;;;;;;21.55;41.37;100737.73;1714386;81;25644;-57
2021/05/30 09:51:33;;;;;;;2.10;2.00;;;;;;;21.40;40.99;100740.86;1717774;81;27669;-58
2021/05/30 09:54:19;;;;;;;3.45;1.80;;;;;;;21.33;41.67;100745.45;1710257;80;26050;-58
2021/05/30 09:56:48;;;;;;;2.25;1.85;;;;;;;21.26;41.31;100735.92;1689359;81;25757;-58
2021/05/30 09:59:24;;;;;;;2.90;1.72;;;;;;;21.63;42.30;100727.63;1729030;81;25994;-56
2021/05/30 10:02:02;;;;;;;3.17;1.62;;;;;;;22.18;42.81;100738.86;1712190;82;26023;-57
2021/05/30 10:04:35;;;;;;;2.00;1.55;;;;;;;23.16;42.18;100745.30;1727356;81;27958;-58
2021/05/30 10:07:05;;;;;;;1.72;1.60;;;;;;;23.42;40.19;100750.56;1707117;81;26505;-59
2021/05/30 10:09:32;;;;;;;2.72;1.70;;;;;;;23.21;38.89;100747.70;1717737;82;25468;-59
2021/05/30 10:11:59;;;;;;;4.83;1.85;;;;;;;23.03;38.90;100745.55;1717434;82;25844;-58
2021/05/30 10:14:28;;;;;;;4.50;2.05;;;;;;;22.91;38.75;100751.38;1712540;81;25987;-58
2021/05/30 10:16:55;;;;;;;2.77;2.00;;;;;;;22.66;38.74;100747.84;1693116;82;27998;-55
2021/05/30 10:19:43;;;;;;;3.72;1.60;;;;;;;22.50;39.15;100745.91;1716061;82;25962;-57
2021/05/30 10:22:11;;;;;;;2.62;1.45;;;;;;;22.49;39.25;100742.37;1707394;81;25713;-58
2021/05/30 10:24:43;;;;;;;4.00;1.55;;;;;;;22.54;38.78;100746.16;1709569;81;26268;-58
2021/05/30 10:27:24;;;;;;;2.45;1.50;;;;;;;22.62;38.45;100742.09;1747775;80;25851;-59
2021/05/30 10:30:14;;;;;;;1.50;1.40;;;;;;;22.67;38.72;100738.38;1742886;80;29544;-58
2021/05/30 10:32:47;;;;;;;2.02;1.40;;;;;;;22.70;38.23;100752.01;1748416;80;25849;-59
2021/05/30 10:35:25;;;;;;;3.52;1.55;;;;;;;22.66;38.26;100752.55;1731515;81;26508;-58
2021/05/30 10:37:54;;;;;;;2.27;1.95;;;;;;;22.56;38.39;100753.45;1708966;81;27956;-58
2021/05/30 10:40:35;;;;;;;3.17;1.80;;;;;;;22.50;38.57;100749.45;1721639;80;26120;-59
2021/05/30 10:43:13;;;;;;;1.80;1.65;;;;;;;22.45;38.87;100756.69;1722122;80;27324;-57
2021/05/30 10:45:51;;;;;;;5.50;2.10;;;;;;;22.37;38.77;100765.48;1701523;81;27173;-57
2021/05/30 10:48:19;;;;;;;2.15;1.67;;;;;;;22.21;39.03;100764.88;1725736;81;26550;-57
2021/05/30 10:53:48;;;;;;;6.45;1.70;;;;;;;21.76;38.76;100768.07;1721870;81;32538;-57
2021/05/30 10:56:34;;;;;;;2.20;1.90;;;;;;;21.51;38.92;100768.55;1717874;81;28806;-57
2021/05/30 10:59:15;;;;;;;5.20;1.85;;;;;;;21.28;39.30;100764.45;1706140;82;25774;-58
2021/05/30 11:01:46;;;;;;;3.12;1.92;;;;;;;21.07;39.56;100760.20;1712078;82;25732;-57
2021/05/30 11:04:29;;;;;;;3.90;2.10;;;;;;;20.92;39.89;100763.89;1700728;82;25849;-58
2021/05/30 11:07:03;;;;;;;2.35;1.67;;;;;;;20.85;40.19;100765.16;1709906;82;25836;-57
2021/05/30 11:09:57;;;;;;;3.08;1.62;;;;;;;20.74;40.12;100762.23;1713467;81;28009;-58
2021/05/30 11:12:32;;;;;;;3.35;1.65;;;;;;;20.62;40.21;100765.12;1706611;82;26019;-57
2021/05/30 11:17:58;;;;;;;3.87;2.40;;;;;;;20.34;40.33;100766.20;1722202;80;25896;-58
2021/05/30 11:20:46;;;;;;;4.53;2.25;;;;;;;20.20;40.64;100764.56;1732511;79;26121;-58
2021/05/30 11:23:17;;;;;;;6.87;2.50;;;;;;;20.10;40.81;100771.43;1729832;80;27313;-58
2021/05/30 11:25:49;;;;;;;3.92;2.75;;;;;;;20.05;40.91;100771.72;1743563;79;25717;-59
2021/05/30 11:28:24;;;;;;;3.40;2.10;;;;;;;19.91;40.96;100768.12;1742415;80;25651;-58
2021/05/30 11:31:03;;;;;;;4.58;2.33;;;;;;;19.86;41.20;100777.42;1736586;80;25833;-59
2021/05/30 11:33:39;;;;;;;;;;;;;;;19.78;41.06;100779.80;1729916;81;25715;-57
2021/05/30 11:36:04;;;;;;;5.90;2.42;;;;;;;19.71;41.29;100770.02;1738873;79;27936;-56
2021/05/30 11:38:51;;;;;;;9.18;2.62;;;;;;;19.70;41.59;100780.20;1744744;79;25844;-57
2021/05/30 11:41:26;;;;;;;5.72;2.85;;;;;;;19.77;42.15;100765.87;1742079;80;26014;-58
2021/05/30 11:44:12;;;;;;;4.58;2.55;;;;;;;19.91;42.47;100770.27;1725667;80;26151;-60
2021/05/30 11:46:57;;;;;;;6.60;1.82;;;;;;;20.06;42.42;100777.44;1744566;80;25590;-60
2021/05/30 11:49:29;;;;;;;2.92;2.05;;;;;;;20.10;42.25;100769.47;1746392;80;27863;-60
2021/05/30 11:52:04;;;;;;;2.85;2.37;;;;;;;20.18;42.24;100770.42;1728753;80;25879;-60
2021/05/30 11:54:35;;;;;;;4.03;1.70;;;;;;;20.26;41.77;100765.28;1744187;79;25978;-59
2021/05/30 11:57:06;;;;;;;6.12;2.00;;;;;;;20.38;41.96;100767.63;1782380;77;26246;-59
2021/05/30 11:59:58;;;;;;;3.00;2.02;;;;;;;20.54;41.97;100769.70;1780894;78;26455;-60
2021/05/30 12:02:38;;;;;;;3.37;2.20;;;;;;;20.83;42.21;100761.98;1836231;76;27301;-61
2021/05/30 12:05:14;;;;;;;2.87;2.10;;;;;;;21.15;41.98;100765.25;1817844;77;25810;-59
2021/05/30 12:07:42;;;;;;;3.70;1.70;;;;;;;21.51;42.23;100769.92;1790329;76;25824;-68
2021/05/30 12:10:13;;;;;;;2.45;1.52;;;;;;;22.09;41.54;100761.80;1792603;78;25620;-57
2021/05/30 12:12:46;;;;;;;1.95;1.72;;;;;;;22.28;40.21;100776.00;1772768;78;25810;-71
2021/05/30 12:15:27;;;;;;;4.15;1.47;;;;;;;22.34;40.11;100771.75;1777660;78;27376;-58
2021/05/30 12:18:02;;;;;;;2.72;1.90;;;;;;;22.37;39.49;100783.40;1791729;77;26295;-58
2021/05/30 12:20:36;;;;;;;5.17;1.98;;;;;;;22.39;39.01;100780.27;1802978;78;26961;-58
2021/05/30 12:23:17;;;;;;;3.20;1.42;;;;;;;22.38;39.11;100785.56;1782065;78;26518;-58
2021/05/30 12:25:58;;;;;;;5.05;1.60;;;;;;;22.39;38.76;100787.16;1799756;77;25868;-58
2021/05/30 12:28:39;;;;;;;2.02;1.52;;;;;;;22.32;38.78;100786.50;1791479;77;28045;-58
2021/05/30 12:31:11;;;;;;;2.08;1.47;;;;;;;22.38;38.63;100784.97;1802691;77;25788;-57
2021/05/30 12:34:05;;;;;;;4.12;1.60;;;;;;;22.33;38.23;100790.03;1807771;77;25688;-58
2021/05/30 12:36:50;;;;;;;2.08;1.72;;;;;;;22.26;37.62;100786.58;1760474;79;25942;-58
2021/05/30 12:39:26;;;;;;;2.00;1.60;;;;;;;22.19;37.51;100787.89;1755961;79;26207;-58
2021/05/30 12:42:11;;;;;;;3.25;2.00;;;;;;;22.15;37.68;100784.28;1751342;79;27311;-58
2021/05/30 12:44:44;;;;;;;5.50;2.37;;;;;;;22.18;38.05;100787.67;1766909;79;25705;-58
2021/05/30 12:47:20;;;;;;;5.37;2.12;;;;;;;22.23;37.93;100778.28;1738443;80;25798;-58
2021/05/30 12:49:58;;;;;;;1.92;1.50;;;;;;;22.22;37.89;100791.27;1762329;80;26991;-58
2021/05/30 12:52:26;;;;;;;6.57;1.63;;;;;;;22.19;37.63;100773.52;1740951;80;25688;-57
2021/05/30 12:55:00;;;;;;;2.63;1.60;;;;;;;22.31;38.17;100785.49;1775054;79;27323;-59
2021/05/30 12:58:02;;;;;;;1.72;1.62;;;;;;;22.45;37.90;100780.11;1753047;80;26336;-58
2021/05/30 13:00:36;;;;;;;2.83;1.82;;;;;;;22.62;37.94;100777.92;1654203;85;25940;-58
2021/05/30 13:03:09;;;;;;;2.12;1.60;;;;;;;22.77;37.42;100783.77;1687120;83;26570;-58
2021/05/30 13:05:45;;;;;;;2.60;2.40;;;;;;;22.87;36.84;100780.91;1653833;84;26551;-58
2021/05/30 13:08:29;;;;;;;1.80;1.70;;;;;;;22.93;36.96;100790.40;1682226;83;27336;-56
2021/05/30 13:10:58;;;;;;;3.12;1.20;;;;;;;22.94;36.43;100786.48;1653707;85;25932;-57
2021/05/30 13:13:35;;;;;;;4.80;1.60;;;;;;;22.91;35.88;100787.23;1668758;83;25809;-57
2021/05/30 13:16:02;;;;;;;3.40;1.67;;;;;;;22.91;36.08;100776.98;1670523;84;25908;-56
2021/05/30 13:18:31;;;;;;;2.25;1.47;;;;;;;22.97;35.98;100787.09;1724773;80;25860;-57
2021/05/30 13:20:58;;;;;;;1.98;1.77;;;;;;;22.99;35.84;100785.34;1719786;81;27312;-54
2021/05/30 13:23:29;;;;;;;2.20;1.90;;;;;;;22.93;36.10;100786.26;1725037;80;25888;-55
2021/05/30 13:26:11;;;;;;;2.62;1.95;;;;;;;22.79;36.27;100785.56;1766428;79;26024;-54
2021/05/30 13:28:41;;;;;;;2.22;1.85;;;;;;;22.71;36.00;100785.28;1753561;79;26095;-54
2021/05/30 13:31:18;;;;;;;2.00;1.70;;;;;;;22.70;35.82;100780.95;1770545;79;25752;-54
2021/05/30 13:33:54;;;;;;;2.95;1.50;;;;;;;22.65;36.00;100782.69;1767012;79;28462;-54
2021/05/30 13:36:24;;;;;;;3.90;1.90;;;;;;;22.56;36.31;100774.73;1766311;79;25875;-53
2021/05/30 13:38:53;;;;;;;1.62;1.52;;;;;;;22.65;36.54;100775.20;1794020;77;25885;-53
2021/05/30 13:41:24;;;;;;;6.58;1.82;;;;;;;22.77;36.57;100776.88;1797628;77;25817;-49
2021/05/30 13:43:56;;;;;;;1.72;1.62;;;;;;;22.90;36.27;100770.47;1798704;77;25621;-54
2021/05/30 13:46:23;;;;;;;2.30;1.65;;;;;;;22.98;36.34;100777.63;1800627;77;27295;-52
2021/05/30 13:48:50;;;;;;;3.27;1.50;;;;;;;23.05;35.67;100779.06;1772903;79;25854;-49
2021/05/30 13:51:18;;;;;;;3.00;1.90;;;;;;;23.01;36.00;100772.73;1783979;79;25843;-52
2021/05/30 13:53:48;;;;;;;1.72;1.62;;;;;;;23.08;36.30;100767.89;1792388;78;25824;-49
2021/05/30 13:56:16;;;;;;;6.22;2.90;;;;;;;23.05;35.69;100774.92;1809132;77;25822;-50
2021/05/30 13:58:44;;;;;;;4.17;3.10;;;;;;;23.02;35.82;100776.28;1790104;77;27296;-54
2021/05/30 14:01:15;;;;;;;3.27;2.35;;;;;;;22.95;35.70;100768.73;1779478;78;26253;-53
2021/05/30 14:03:41;;;;;;;5.92;2.90;;;;;;;22.86;35.69;100766.30;1786241;78;25869;-53
2021/05/30 14:06:11;;;;;;;3.92;1.98;;;;;;;22.78;35.59;100769.39;1774938;78;26241;-53
2021/05/30 14:08:38;;;;;;;3.45;1.80;;;;;;;22.71;35.93;100763.22;1798724;77;33593;-58
2021/05/30 14:11:04;;;;;;;3.83;1.62;;;;;;;22.71;35.76;100768.17;1802555;77;27323;-52
2021/05/30 14:13:31;;;;;;;2.15;1.40;;;;;;;22.65;35.70;100757.28;1781037;78;25860;-52
2021/05/30 14:15:58;;;;;;;4.60;1.60;;;;;;;22.63;35.76;100751.92;1776065;78;26464;-53
2021/05/30 14:18:24;;;;;;;3.00;1.90;;;;;;;22.59;35.64;100756.63;1779397;78;26484;-53
2021/05/30 14:20:51;;;;;;;3.35;1.92;;;;;;;22.52;35.17;100755.97;1790464;78;25767;-51
2021/05/30 14:23:18;;;;;;;1.47;1.37;;;;;;;22.32;34.63;100757.56;1800475;78;29545;-52
2021/05/30 14:25:44;;;;;;;2.87;1.37;;;;;;;22.14;34.63;100751.03;1793368;77;25801;-52
2021/05/30 14:28:11;;;;;;;2.22;1.62;;;;;;;22.04;34.74;100753.87;1785566;78;25903;-56
2021/05/30 14:30:38;;;;;;;1.60;1.50;;;;;;;21.90;34.80;100745.45;1796646;78;26253;-52
2021/05/30 14:33:07;;;;;;;3.72;2.45;;;;;;;21.79;35.00;100754.94;1797486;77;26337;-54
2021/05/30 14:35:33;;;;;;;;;;;;;;;21.67;35.02;100752.44;1802393;77;27317;-53
2021/05/30 14:37:59;;;;;;;4.75;1.70;;;;;;;21.54;35.21;100752.67;1793589;77;25874;-54
2021/05/30 14:40:26;;;;;;;3.98;1.67;;;;;;;21.45;35.47;100749.36;1771249;77;25814;-54
2021/05/30 14:42:52;;;;;;;1.85;1.72;;;;;;;21.40;35.76;100748.30;1786427;78;25799;-55
2021/05/30 14:45:20;;;;;;;2.20;2.00;;;;;;;21.38;36.00;100745.92;1795017;77;25752;-53
2021/05/30 14:47:46;;;;;;;4.58;2.70;;;;;;;21.32;36.17;100749.36;1782059;77;27342;-52
2021/05/30 14:50:13;;;;;;;3.98;2.85;;;;;;;21.26;36.28;100747.52;1801115;77;25757;-53
2021/05/30 14:52:41;;;;;;;2.42;2.10;;;;;;;21.14;36.12;100744.40;1785009;77;25759;-53
2021/05/30 14:55:11;;;;;;;2.52;1.87;;;;;;;21.05;36.30;100748.79;1822545;77;25920;-53
2021/05/30 14:57:39;;;;;;;3.02;2.27;;;;;;;20.92;36.43;100736.98;1796537;76;25865;-54
2021/05/30 15:00:07;;;;;;;2.60;2.40;;;;;;;20.84;36.48;100746.50;1796558;77;27295;-54
2021/05/30 15:02:34;;;;;;;2.30;2.10;;;;;;;20.80;36.81;100746.23;1811768;77;25775;-50
2021/05/30 15:05:01;;;;;;;2.72;2.10;;;;;;;20.76;37.03;100753.04;1816596;77;26022;-50
2021/05/30 15:07:28;;;;;;;1.90;1.80;;;;;;;20.76;37.05;100752.26;1810451;77;26330;-55
2021/05/30 15:09:55;;;;;;;3.47;2.10;;;;;;;20.70;36.64;100751.19;1802813;77;25908;-57
2021/05/30 15:12:22;;;;;;;3.60;2.12;;;;;;;20.65;36.61;100750.68;1790434;78;27288;-57
2021/05/30 15:14:48;;;;;;;5.15;1.90;;;;;;;20.67;36.89;100752.47;1806460;77;26417;-56
2021/05/30 15:17:15;;;;;;;2.08;1.77;;;;;;;20.74;37.24;100750.43;1803364;77;25805;-57
2021/05/30 15:19:41;;;;;;;7.22;2.05;;;;;;;20.73;37.39;100751.02;1807258;77;26538;-56
2021/05/30 15:22:08;;;;;;;2.30;1.65;;;;;;;20.72;37.55;100750.80;1794064;77;25817;-57
2021/05/30 15:24:36;;;;;;;2.70;2.02;;;;;;;20.69;37.74;100749.59;1799001;77;29597;-57
2021/05/30 15:27:03;;;;;;;2.37;1.72;;;;;;;20.62;37.70;100743.13;1796325;78;26172;-57
2021/05/30 15:29:30;;;;;;;2.08;1.98;;;;;;;20.56;37.69;100743.24;1787883;77;25686;-57
2021/05/30 15:31:56;;;;;;;3.25;2.30;;;;;;;20.49;37.77;100739.78;1821043;77;27789;-56
2021/05/30 15:34:25;;;;;;;2.40;2.20;;;;;;;20.46;37.88;100738.55;1811590;77;25922;-57
2021/05/30 15:36:52;;;;;;;5.50;2.12;;;;;;;20.44;38.05;100745.59;1818212;77;27383;-57
2021/05/30 15:39:19;;;;;;;2.10;1.87;;;;;;;20.38;37.93;100749.22;1803163;77;25735;-59
2021/05/30 15:41:47;;;;;;;3.00;2.37;;;;;;;20.26;37.99;100746.62;1797544;77;25762;-56
2021/05/30 15:44:13;;;;;;;2.02;1.80;;;;;;;20.17;38.20;100748.81;1803661;77;26569;-57
2021/05/30 15:46:40;;;;;;;2.42;2.10;;;;;;;20.08;38.34;100746.30;1798151;77;25886;-56
2021/05/30 15:49:06;;;;;;;3.10;1.92;;;;;;;19.96;38.19;100752.73;1809577;77;29434;-56
2021/05/30 15:51:34;;;;;;;3.45;1.98;;;;;;;19.88;38.29;100748.25;1798764;77;25849;-55
2021/05/30 15:54:11;;;;;;;3.00;2.30;;;;;;;19.84;38.29;100748.17;1800477;77;25818;-55
2021/05/30 15:56:41;;;;;;;3.80;1.85;;;;;;;19.80;38.74;100745.91;1795220;77;26414;-56
2021/05/30 15:59:08;;;;;;;2.45;1.92;;;;;;;19.74;38.78;100750.91;1797985;77;25672;-56
2021/05/30 16:01:37;;;;;;;4.03;2.12;;;;;;;19.69;38.72;100744.89;1799780;77;27311;-56
2021/05/30 16:04:05;;;;;;;2.22;1.92;;;;;;;19.63;38.79;100750.43;1798690;77;26123;-55
2021/05/30 16:06:31;;;;;;;5.80;4.47;;;;;;;19.52;38.64;100757.86;1797680;78;25833;-57
2021/05/30 16:08:57;;;;;;;3.25;2.95;;;;;;;19.42;38.89;100757.05;1787196;77;25783;-58
2021/05/30 16:11:24;;;;;;;5.47;2.47;;;;;;;19.36;39.15;100762.02;1806828;77;25684;-57
2021/05/30 16:13:50;;;;;;;2.37;2.17;;;;;;;19.31;39.35;100762.30;1796071;77;27179;-58
2021/05/30 16:16:17;;;;;;;4.67;2.15;;;;;;;19.29;39.67;100768.72;1774412;78;26604;-57
2021/05/30 16:18:43;;;;;;;3.92;2.90;;;;;;;19.22;39.69;100759.75;1797453;77;25911;-57
2021/05/30 16:21:10;;;;;;;7.80;5.00;;;;;;;19.16;39.99;100758.42;1800435;77;25865;-57
2021/05/30 16:23:36;;;;;;;3.72;3.05;;;;;;;19.16;40.33;100758.42;1795790;77;25810;-57
2021/05/30 16:26:03;;;;;;;4.55;2.77;;;;;;;19.13;40.46;100759.71;1804787;77;27363;-58
2021/05/30 16:28:29;;;;;;;3.58;2.40;;;;;;;19.09;40.63;100767.06;1805422;77;25783;-57
2021/05/30 16:30:56;;;;;;;3.75;2.90;;;;;;;19.08;40.63;100765.47;1817038;76;25935;-57
2021/05/30 16:33:22;;;;;;;3.10;2.77;;;;;;;19.10;40.86;100765.31;1806205;77;26513;-57
2021/05/30 16:35:49;;;;;;;3.58;2.27;;;;;;;19.16;40.92;100766.64;1806831;77;25918;-57
2021/05/30 16:38:17;;;;;;;3.52;2.05;;;;;;;19.16;40.45;100770.76;1801168;77;26807;-58
2021/05/30 16:40:44;;;;;;;8.98;5.47;;;;;;;19.15;40.48;100765.63;1794999;77;26231;-56
2021/05/30 16:43:10;;;;;;;5.25;3.17;;;;;;;19.14;40.21;100764.06;1760086;79;25728;-57
2021/05/30 16:45:37;;;;;;;8.48;5.55;;;;;;;19.11;40.42;100768.29;1788021;78;25862;-55
2021/05/30 16:48:04;;;;;;;4.65;3.15;;;;;;;19.10;40.38;100765.31;1806771;77;25729;-57
2021/05/30 16:50:31;;;;;;;5.22;2.00;;;;;;;19.08;40.32;100766.25;1799355;77;27368;-56
2021/05/30 16:52:57;;;;;;;2.80;2.55;;;;;;;19.01;40.27;100756.49;1807944;78;27318;-56
2021/05/30 16:55:24;;;;;;;5.25;4.30;;;;;;;19.00;40.38;100767.23;1808996;78;25833;-57
2021/05/30 16:57:50;;;;;;;5.10;2.40;;;;;;;18.97;40.56;100759.15;1801846;77;26013;-55
2021/05/30 17:00:18;;;;;;;2.50;2.30;;;;;;;18.95;40.61;100764.20;1799109;77;26390;-55
2021/05/30 17:02:46;;;;;;;2.25;2.05;;;;;;;18.92;40.33;100763.53;1782277;77;27308;-56
2021/05/30 17:05:13;;;;;;;2.98;2.25;;;;;;;18.87;40.20;100763.80;1797820;77;26051;-55
2021/05/30 17:07:42;;;;;;;4.90;4.40;;;;;;;18.84;40.20;100770.77;1775238;79;25834;-54
2021/05/30 17:10:10;;;;;;;4.45;3.12;;;;;;;18.85;40.32;100768.84;1800499;77;26451;-56
2021/05/30 17:12:37;;;;;;;3.77;2.72;;;;;;;18.85;40.20;100767.47;1800524;77;25937;-56
2021/05/30 17:15:08;;;;;;;2.77;2.58;;;;;;;18.83;40.24;100762.89;1802294;77;28053;-57
2021/05/30 17:17:36;;;;;;;3.30;2.40;;;;;;;18.82;40.13;100764.03;1802788;77;25754;-57
2021/05/30 17:20:04;;;;;;;5.03;2.60;;;;;;;18.80;40.10;100769.08;1808699;77;25845;-56
2021/05/30 17:22:30;;;;;;;2.58;2.37;;;;;;;18.80;40.09;100773.19;1779126;78;25953;-55
2021/05/30 17:24:57;;;;;;;4.40;2.40;;;;;;;18.82;39.81;100773.07;1800301;77;25787;-56
2021/05/30 17:27:23;;;;;;;2.62;2.42;;;;;;;18.84;39.91;100771.35;1798761;77;29499;-56
2021/05/30 17:29:50;;;;;;;3.67;2.70;;;;;;;18.83;39.88;100769.75;1795841;77;25810;-58
2021/05/30 17:32:16;;;;;;;23.90;13.55;;;;;;;18.83;39.84;100776.05;1808717;77;26505;-55
2021/05/30 17:34:43;;;;;;;8.00;4.40;;;;;;;18.82;39.69;100778.55;1796911;78;25663;-56
2021/05/30 17:37:09;;;;;;;8.35;3.12;;;;;;;18.79;39.45;100769.63;1779128;78;25699;-53
2021/05/30 17:39:36;;;;;;;5.03;3.02;;;;;;;18.73;39.35;100785.31;1815178;77;27285;-55
2021/05/30 17:42:07;;;;;;;16.25;10.00;;;;;;;18.63;39.38;100775.69;1798852;76;26505;-55
2021/05/30 17:44:36;;;;;;;8.88;5.78;;;;;;;18.56;39.51;100785.89;1786339;78;25657;-55
2021/05/30 17:47:04;;;;;;;4.62;2.33;;;;;;;18.49;39.68;100784.34;1791715;78;25800;-56